createdAt,value
2019-01-28T00:00:01.112Z,863.23
2019-01-28T00:01:00.909Z,863.18
2019-01-28T00:02:01.098Z,863.19
2019-01-28T00:03:01.147Z,863.17
2019-01-28T00:04:01.115Z,863.15
2019-01-28T00:05:01.082Z,863.08
2019-01-28T00:06:01.101Z,863.07
2019-01-28T00:07:00.833Z,863.10
2019-01-28T00:08:01.053Z,863.11
2019-01-28T00:09:00.854Z,863.14
2019-01-28T00:10:00.843Z,863.12
2019-01-28T00:11:01.036Z,863.18
2019-01-28T00:12:01.046Z,863.17
2019-01-28T00:13:00.813Z,863.25
2019-01-28T00:14:00.783Z,863.31
2019-01-28T00:15:01.038Z,863.29
2019-01-28T00:16:00.768Z,863.34
2019-01-28T00:17:00.800Z,863.28
2019-01-28T00:18:00.744Z,863.31
2019-01-28T00:19:00.996Z,863.28
2019-01-28T00:20:00.788Z,863.21
2019-01-28T00:21:01.012Z,863.23
2019-01-28T00:22:00.728Z,863.20
2019-01-28T00:23:00.996Z,863.18
2019-01-28T00:24:00.990Z,863.17
2019-01-28T00:25:00.998Z,863.14
2019-01-28T00:26:00.966Z,863.19
2019-01-28T00:27:01.043Z,863.15
2019-01-28T00:28:01.074Z,863.21
2019-01-28T00:29:01.099Z,863.23
2019-01-28T00:30:01.089Z,863.18
2019-01-28T00:31:00.703Z,863.19
2019-01-28T00:32:00.709Z,863.17
2019-01-28T00:33:00.697Z,863.19
2019-01-28T00:34:01.025Z,863.17
2019-01-28T00:35:01.031Z,863.21
2019-01-28T00:36:00.628Z,863.21
2019-01-28T00:37:00.652Z,863.21
2019-01-28T00:38:00.880Z,863.19
2019-01-28T00:39:00.631Z,863.22
2019-01-28T00:40:00.604Z,863.20
2019-01-28T00:41:00.593Z,863.14
2019-01-28T00:42:00.599Z,863.13
2019-01-28T00:43:00.858Z,863.15
2019-01-28T00:44:00.575Z,863.11
2019-01-28T00:45:00.833Z,863.20
2019-01-28T00:46:00.596Z,863.18
2019-01-28T00:47:00.832Z,863.16
2019-01-28T00:48:00.542Z,863.16
2019-01-28T00:49:00.789Z,863.15
2019-01-28T00:50:00.535Z,863.16
2019-01-28T00:51:00.768Z,863.20
2019-01-28T00:52:00.815Z,863.20
2019-01-28T00:53:00.777Z,863.17
2019-01-28T00:54:00.538Z,863.16
2019-01-28T00:55:00.736Z,863.19
2019-01-28T00:56:00.735Z,863.21
2019-01-28T00:57:00.727Z,863.23
2019-01-28T00:58:00.778Z,863.22
2019-01-28T00:59:00.767Z,863.25
2019-01-28T01:00:00.460Z,863.24
2019-01-28T01:01:00.742Z,863.20
2019-01-28T01:02:00.493Z,863.18
2019-01-28T01:03:00.703Z,863.20
2019-01-28T01:04:00.473Z,863.17
2019-01-28T01:05:00.695Z,863.15
2019-01-28T01:06:00.461Z,863.17
2019-01-28T01:07:00.417Z,863.22
2019-01-28T01:08:00.683Z,863.20
2019-01-28T01:09:00.642Z,863.20
2019-01-28T01:10:00.420Z,863.22
2019-01-28T01:11:00.652Z,863.25
2019-01-28T01:12:00.671Z,863.29
2019-01-28T01:13:00.409Z,863.29
2019-01-28T01:14:00.370Z,863.28
2019-01-28T01:15:00.601Z,863.24
2019-01-28T01:16:00.590Z,863.20
2019-01-28T01:17:00.352Z,863.22
2019-01-28T01:18:00.603Z,863.22
2019-01-28T01:19:00.626Z,863.19
2019-01-28T01:20:00.328Z,863.15
2019-01-28T01:21:00.360Z,863.11
2019-01-28T01:22:00.323Z,863.12
2019-01-28T01:23:00.349Z,863.13
2019-01-28T01:24:00.295Z,863.12
2019-01-28T01:25:00.371Z,863.11
2019-01-28T01:26:00.575Z,863.07
2019-01-28T01:27:00.285Z,863.04
2019-01-28T01:28:00.507Z,863.03
2019-01-28T01:29:00.313Z,863.07
2019-01-28T01:30:00.547Z,863.10
2019-01-28T01:31:00.298Z,863.09
2019-01-28T01:32:00.511Z,863.08
2019-01-28T01:33:00.526Z,863.03
2019-01-28T01:34:00.475Z,863.05
2019-01-28T01:35:00.496Z,863.04
2019-01-28T01:36:00.258Z,862.97
2019-01-28T01:37:00.244Z,862.97
2019-01-28T01:38:00.469Z,862.99
2019-01-28T01:39:00.455Z,862.99
2019-01-28T01:40:00.209Z,862.98
2019-01-28T01:41:00.445Z,862.95
2019-01-28T01:42:00.175Z,862.88
2019-01-28T01:43:00.465Z,862.90
2019-01-28T01:44:00.400Z,862.86
2019-01-28T01:45:00.248Z,862.83
2019-01-28T01:46:00.419Z,862.85
2019-01-28T01:47:00.406Z,862.83
2019-01-28T01:48:00.175Z,862.88
2019-01-28T01:49:00.395Z,862.88
2019-01-28T01:50:00.182Z,862.86
2019-01-28T01:51:00.119Z,862.81
2019-01-28T01:52:00.120Z,862.81
2019-01-28T01:53:00.132Z,862.83
2019-01-28T01:54:00.320Z,862.86
2019-01-28T01:55:00.123Z,862.87
2019-01-28T01:56:00.093Z,862.85
2019-01-28T01:57:00.370Z,862.81
2019-01-28T01:58:00.097Z,862.76
2019-01-28T01:59:00.343Z,862.75
2019-01-28T02:00:00.333Z,862.74
2019-01-28T02:01:00.050Z,862.72
2019-01-28T02:02:00.329Z,862.70
2019-01-28T02:03:00.066Z,862.65
2019-01-28T02:04:00.287Z,862.64
2019-01-28T02:05:00.283Z,862.63
2019-01-28T02:06:00.256Z,862.64
2019-01-28T02:07:00.050Z,862.65
2019-01-28T02:08:00.258Z,862.66
2019-01-28T02:09:00.280Z,862.64
2019-01-28T02:10:00.273Z,862.60
2019-01-28T02:11:00.227Z,862.55
2019-01-28T02:11:59.964Z,862.54
2019-01-28T02:12:59.972Z,862.51
2019-01-28T02:14:00.213Z,862.59
2019-01-28T02:15:00.248Z,862.51
2019-01-28T02:15:59.978Z,862.54
2019-01-28T02:17:00.205Z,862.49
2019-01-28T02:18:00.229Z,862.52
2019-01-28T02:18:59.925Z,862.43
2019-01-28T02:20:00.269Z,862.46
2019-01-28T02:21:00.190Z,862.47
2019-01-28T02:22:00.150Z,862.43
2019-01-28T02:23:00.150Z,862.41
2019-01-28T02:24:00.163Z,862.38
2019-01-28T02:25:00.250Z,862.40
2019-01-28T02:26:00.166Z,862.38
2019-01-28T02:26:59.902Z,862.31
2019-01-28T02:27:59.910Z,862.28
2019-01-28T02:29:00.096Z,862.27
2019-01-28T02:30:00.318Z,862.27
2019-01-28T02:30:59.838Z,862.21
2019-01-28T02:31:59.839Z,862.22
2019-01-28T02:32:59.857Z,862.23
2019-01-28T02:33:59.834Z,862.22
2019-01-28T02:34:59.862Z,862.23
2019-01-28T02:35:59.818Z,862.20
2019-01-28T02:36:59.811Z,862.24
2019-01-28T02:37:59.835Z,862.22
2019-01-28T02:39:00.070Z,862.27
2019-01-28T02:40:00.042Z,862.36
2019-01-28T02:41:00.020Z,862.41
2019-01-28T02:42:00.006Z,862.45
2019-01-28T02:43:00.020Z,862.46
2019-01-28T02:43:59.743Z,862.45
2019-01-28T02:44:59.747Z,862.44
2019-01-28T02:45:59.783Z,862.45
2019-01-28T02:46:59.977Z,862.46
2019-01-28T02:47:59.724Z,862.47
2019-01-28T02:49:00.068Z,862.49
2019-01-28T02:50:00.239Z,862.42
2019-01-28T02:51:00.085Z,862.45
2019-01-28T02:51:59.734Z,862.48
2019-01-28T02:53:00.118Z,862.54
2019-01-28T02:54:00.061Z,862.52
2019-01-28T02:55:00.142Z,862.56
2019-01-28T02:55:59.987Z,862.62
2019-01-28T02:56:59.682Z,862.62
2019-01-28T02:57:59.942Z,862.55
2019-01-28T02:58:59.964Z,862.53
2019-01-28T02:59:59.959Z,862.45
2019-01-28T03:00:59.909Z,862.42
2019-01-28T03:01:59.671Z,862.35
2019-01-28T03:02:59.916Z,862.31
2019-01-28T03:03:59.625Z,862.28
2019-01-28T03:04:59.878Z,862.30
2019-01-28T03:05:59.860Z,862.26
2019-01-28T03:06:59.899Z,862.29
2019-01-28T03:07:59.631Z,862.25
2019-01-28T03:08:59.843Z,862.23
2019-01-28T03:09:59.825Z,862.17
2019-01-28T03:10:59.836Z,862.12
2019-01-28T03:11:59.841Z,862.05
2019-01-28T03:12:59.796Z,862.09
2019-01-28T03:13:59.813Z,862.05
2019-01-28T03:14:59.823Z,862.03
2019-01-28T03:15:59.545Z,862.11
2019-01-28T03:16:59.828Z,862.09
2019-01-28T03:17:59.534Z,862.11
2019-01-28T03:18:59.565Z,862.03
2019-01-28T03:19:59.553Z,862.06
2019-01-28T03:20:59.499Z,862.06
2019-01-28T03:22:00.229Z,862.05
2019-01-28T03:22:59.501Z,862.00
2019-01-28T03:23:59.485Z,861.98
2019-01-28T03:24:59.751Z,861.99
2019-01-28T03:25:59.735Z,862.01
2019-01-28T03:26:59.496Z,861.99
2019-01-28T03:27:59.754Z,861.96
2019-01-28T03:28:59.710Z,861.86
2019-01-28T03:29:59.716Z,861.78
2019-01-28T03:30:59.692Z,861.81
2019-01-28T03:31:59.439Z,861.73
2019-01-28T03:32:59.452Z,861.77
2019-01-28T03:33:59.446Z,861.73
2019-01-28T03:34:59.678Z,861.72
2019-01-28T03:35:59.675Z,861.70
2019-01-28T03:36:59.665Z,861.75
2019-01-28T03:37:59.775Z,861.80
2019-01-28T03:38:59.379Z,861.81
2019-01-28T03:39:59.789Z,861.85
2019-01-28T03:40:59.395Z,861.82
2019-01-28T03:41:59.365Z,861.80
2019-01-28T03:42:59.378Z,861.80
2019-01-28T03:43:59.378Z,861.79
2019-01-28T03:44:59.725Z,861.80
2019-01-28T03:45:59.357Z,861.79
2019-01-28T03:46:59.600Z,861.81
2019-01-28T03:47:59.618Z,861.80
2019-01-28T03:48:59.605Z,861.80
2019-01-28T03:49:59.309Z,861.76
2019-01-28T03:50:59.549Z,861.77
2019-01-28T03:51:59.567Z,861.82
2019-01-28T03:52:59.572Z,861.82
2019-01-28T03:53:59.515Z,861.86
2019-01-28T03:54:59.306Z,861.84
2019-01-28T03:55:59.524Z,861.82
2019-01-28T03:56:59.296Z,861.72
2019-01-28T03:57:59.546Z,861.74
2019-01-28T03:58:59.538Z,861.71
2019-01-28T03:59:59.234Z,861.63
2019-01-28T04:00:59.625Z,861.63
2019-01-28T04:01:59.272Z,861.58
2019-01-28T04:02:59.264Z,861.58
2019-01-28T04:03:59.221Z,861.53
2019-01-28T04:04:59.614Z,861.53
2019-01-28T04:05:59.203Z,861.50
2019-01-28T04:06:59.565Z,861.46
2019-01-28T04:07:59.539Z,861.44
2019-01-28T04:08:59.589Z,861.37
2019-01-28T04:09:59.589Z,861.32
2019-01-28T04:10:59.465Z,861.32
2019-01-28T04:11:59.162Z,861.26
2019-01-28T04:12:59.145Z,861.29
2019-01-28T04:13:59.141Z,861.26
2019-01-28T04:14:59.407Z,861.26
2019-01-28T04:15:59.405Z,861.24
2019-01-28T04:16:59.427Z,861.24
2019-01-28T04:17:59.137Z,861.23
2019-01-28T04:18:59.101Z,861.25
2019-01-28T04:19:59.116Z,861.26
2019-01-28T04:20:59.090Z,861.22
2019-01-28T04:21:59.084Z,861.23
2019-01-28T04:22:59.356Z,861.24
2019-01-28T04:23:59.106Z,861.22
2019-01-28T04:24:59.357Z,861.22
2019-01-28T04:25:59.362Z,861.21
2019-01-28T04:26:59.057Z,861.19
2019-01-28T04:27:59.085Z,861.20
2019-01-28T04:28:59.289Z,861.21
2019-01-28T04:29:59.302Z,861.23
2019-01-28T04:30:59.293Z,861.20
2019-01-28T04:31:59.021Z,861.16
2019-01-28T04:32:59.318Z,861.10
2019-01-28T04:33:59.265Z,861.09
2019-01-28T04:34:58.996Z,861.05
2019-01-28T04:35:59.023Z,861.05
2019-01-28T04:36:59.019Z,861.05
2019-01-28T04:37:59.208Z,860.98
2019-01-28T04:38:59.008Z,860.97
2019-01-28T04:39:59.239Z,860.96
2019-01-28T04:40:58.985Z,860.93
2019-01-28T04:42:58.950Z,860.92
2019-01-28T04:43:59.219Z,860.93
2019-01-28T04:44:59.209Z,860.92
2019-01-28T04:45:58.949Z,860.92
2019-01-28T04:46:58.908Z,860.95
2019-01-28T04:47:58.901Z,860.97
2019-01-28T04:48:59.147Z,860.97
2019-01-28T04:49:58.891Z,860.93
2019-01-28T04:51:59.256Z,860.94
2019-01-28T04:52:58.882Z,860.93
2019-01-28T04:54:00.117Z,860.90
2019-01-28T04:54:58.862Z,860.90
2019-01-28T04:55:59.202Z,860.86
2019-01-28T04:56:58.847Z,860.86
2019-01-28T04:57:59.132Z,860.85
2019-01-28T04:58:59.117Z,860.80
2019-01-28T04:59:59.089Z,860.79
2019-01-28T05:01:58.849Z,860.76
2019-01-28T05:02:59.086Z,860.75
2019-01-28T05:03:59.072Z,860.77
2019-01-28T05:04:59.075Z,860.76
2019-01-28T05:05:58.787Z,860.74
2019-01-28T05:06:59.030Z,860.72
2019-01-28T05:07:58.773Z,860.69
2019-01-28T05:08:59.030Z,860.67
2019-01-28T05:09:58.797Z,860.65
2019-01-28T05:10:58.785Z,860.64
2019-01-28T05:11:59.023Z,860.58
2019-01-28T05:12:58.772Z,860.58
2019-01-28T05:13:59.010Z,860.59
2019-01-28T05:14:58.973Z,860.57
2019-01-28T05:15:58.944Z,860.58
2019-01-28T05:16:59.019Z,860.61
2019-01-28T05:17:59.686Z,860.61
2019-01-28T05:18:59.037Z,860.60
2019-01-28T05:19:58.733Z,860.58
2019-01-28T05:20:58.755Z,860.55
2019-01-28T05:21:58.940Z,860.53
2019-01-28T05:23:20.584Z,860.44
2019-01-28T05:23:59.360Z,860.42
2019-01-28T05:25:01.404Z,860.39
2019-01-28T05:25:58.790Z,860.40
2019-01-28T05:26:58.622Z,860.35
2019-01-28T05:28:01.736Z,860.39
2019-01-28T05:28:59.002Z,860.39
2019-01-28T05:29:59.590Z,860.38
2019-01-28T05:31:01.404Z,860.39
2019-01-28T05:31:59.036Z,860.39
2019-01-28T05:32:58.950Z,860.35
2019-01-28T05:33:58.650Z,860.37
2019-01-28T05:34:58.916Z,860.35
2019-01-28T05:35:58.680Z,860.34
2019-01-28T05:36:58.826Z,860.32
2019-01-28T05:38:01.286Z,860.26
2019-01-28T05:38:58.612Z,860.25
2019-01-28T05:39:58.588Z,860.26
2019-01-28T05:40:58.542Z,860.15
2019-01-28T05:41:58.533Z,860.10
2019-01-28T05:42:58.527Z,860.13
2019-01-28T05:43:58.785Z,860.16
2019-01-28T05:44:58.557Z,860.15
2019-01-28T05:45:58.555Z,860.15
2019-01-28T05:46:58.506Z,860.13
2019-01-28T05:47:58.536Z,860.12
2019-01-28T05:48:58.727Z,860.13
2019-01-28T05:49:58.481Z,860.21
2019-01-28T05:52:01.321Z,860.21
2019-01-28T05:52:58.507Z,860.20
2019-01-28T05:53:58.485Z,860.19
2019-01-28T05:54:58.713Z,860.20
2019-01-28T05:55:58.744Z,860.18
2019-01-28T05:56:58.704Z,860.19
2019-01-28T05:57:58.425Z,860.17
2019-01-28T05:58:58.410Z,860.14
2019-01-28T05:59:58.454Z,860.12
2019-01-28T06:00:58.443Z,860.09
2019-01-28T06:01:58.425Z,860.10
2019-01-28T06:02:58.407Z,860.05
2019-01-28T06:03:58.379Z,860.01
2019-01-28T06:04:58.623Z,860.02
2019-01-28T06:05:58.413Z,860.01
2019-01-28T06:06:58.639Z,860.01
2019-01-28T06:07:58.632Z,859.98
2019-01-28T06:08:58.356Z,859.97
2019-01-28T06:09:58.615Z,859.93
2019-01-28T06:10:58.622Z,859.93
2019-01-28T06:11:58.373Z,859.93
2019-01-28T06:12:58.629Z,859.98
2019-01-28T06:13:58.591Z,859.99
2019-01-28T06:14:58.566Z,860.00
2019-01-28T06:15:58.319Z,859.93
2019-01-28T06:16:58.297Z,859.93
2019-01-28T06:17:58.597Z,859.95
2019-01-28T06:18:58.287Z,859.92
2019-01-28T06:19:58.281Z,859.90
2019-01-28T06:20:58.506Z,859.91
2019-01-28T06:21:58.536Z,859.89
2019-01-28T06:22:58.279Z,859.87
2019-01-28T06:23:58.253Z,859.92
2019-01-28T06:24:58.281Z,859.92
2019-01-28T06:25:58.534Z,859.90
2019-01-28T06:26:58.913Z,859.89
2019-01-28T06:27:58.226Z,859.88
2019-01-28T06:28:59.095Z,859.84
2019-01-28T06:29:58.215Z,859.78
2019-01-28T06:30:58.192Z,859.80
2019-01-28T06:31:58.228Z,859.75
2019-01-28T06:32:58.188Z,859.81
2019-01-28T06:33:58.212Z,859.75
2019-01-28T06:34:58.470Z,859.74
2019-01-28T06:35:58.189Z,859.74
2019-01-28T06:36:58.206Z,859.76
2019-01-28T06:37:58.153Z,859.75
2019-01-28T06:38:58.447Z,859.71
2019-01-28T06:39:58.445Z,859.71
2019-01-28T06:40:58.131Z,859.73
2019-01-28T06:41:58.366Z,859.73
2019-01-28T06:42:58.354Z,859.71
2019-01-28T06:43:58.157Z,859.70
2019-01-28T06:44:58.113Z,859.66
2019-01-28T06:45:58.404Z,859.66
2019-01-28T06:46:58.349Z,859.60
2019-01-28T06:47:58.091Z,859.63
2019-01-28T06:48:58.347Z,859.60
2019-01-28T06:49:58.334Z,859.60
2019-01-28T06:50:58.316Z,859.59
2019-01-28T06:51:58.057Z,859.61
2019-01-28T06:52:58.083Z,859.63
2019-01-28T06:53:58.291Z,859.61
2019-01-28T06:54:58.037Z,859.66
2019-01-28T06:55:58.327Z,859.60
2019-01-28T06:56:58.289Z,859.61
2019-01-28T06:57:58.044Z,859.60
2019-01-28T06:58:58.012Z,859.64
2019-01-28T06:59:57.992Z,859.63
2019-01-28T07:00:58.230Z,859.62
2019-01-28T07:01:58.261Z,859.65
2019-01-28T07:02:58.253Z,859.63
2019-01-28T07:03:58.261Z,859.63
2019-01-28T07:04:58.221Z,859.66
2019-01-28T07:05:58.225Z,859.63
2019-01-28T07:06:57.979Z,859.63
2019-01-28T07:07:58.210Z,859.66
2019-01-28T07:08:58.240Z,859.65
2019-01-28T07:09:57.971Z,859.67
2019-01-28T07:10:58.153Z,859.67
2019-01-28T07:11:57.909Z,859.69
2019-01-28T07:12:57.941Z,859.73
2019-01-28T07:13:58.167Z,859.75
2019-01-28T07:14:57.919Z,859.74
2019-01-28T07:15:57.876Z,859.72
2019-01-28T07:16:58.154Z,859.66
2019-01-28T07:17:57.863Z,859.68
2019-01-28T07:18:58.086Z,859.61
2019-01-28T07:19:58.084Z,859.58
2019-01-28T07:20:57.875Z,859.58
2019-01-28T07:21:58.100Z,859.54
2019-01-28T07:22:58.062Z,859.55
2019-01-28T07:23:57.864Z,859.60
2019-01-28T07:24:57.817Z,859.58
2019-01-28T07:25:57.853Z,859.62
2019-01-28T07:26:58.183Z,859.58
2019-01-28T07:27:58.114Z,859.56
2019-01-28T07:28:57.800Z,859.54
2019-01-28T07:29:57.810Z,859.56
2019-01-28T07:30:57.777Z,859.48
2019-01-28T07:31:58.064Z,859.49
2019-01-28T07:32:57.996Z,859.52
2019-01-28T07:33:57.799Z,859.56
2019-01-28T07:34:58.026Z,859.54
2019-01-28T07:36:57.757Z,859.53
2019-01-28T07:37:58.556Z,859.46
2019-01-28T07:38:57.721Z,859.47
2019-01-28T07:39:58.018Z,859.44
2019-01-28T07:40:57.704Z,859.41
2019-01-28T07:41:57.946Z,859.38
2019-01-28T07:42:57.694Z,859.40
2019-01-28T07:43:57.704Z,859.42
2019-01-28T07:44:57.937Z,859.42
2019-01-28T07:45:57.905Z,859.43
2019-01-28T07:46:57.955Z,859.42
2019-01-28T07:48:02.795Z,859.45
2019-01-28T07:48:57.945Z,859.43
2019-01-28T07:49:57.880Z,859.45
2019-01-28T07:50:57.663Z,859.45
2019-01-28T07:51:57.905Z,859.48
2019-01-28T07:52:57.845Z,859.48
2019-01-28T07:53:57.605Z,859.45
2019-01-28T07:54:57.831Z,859.47
2019-01-28T07:55:57.878Z,859.46
2019-01-28T07:56:57.854Z,859.47
2019-01-28T07:58:57.601Z,859.48
2019-01-28T07:59:57.607Z,859.51
2019-01-28T08:00:57.590Z,859.55
2019-01-28T08:01:57.828Z,859.49
2019-01-28T08:02:57.802Z,859.52
2019-01-28T08:03:57.839Z,859.51
2019-01-28T08:04:57.534Z,859.54
2019-01-28T08:05:57.765Z,859.53
2019-01-28T08:06:59.452Z,859.54
2019-01-28T08:07:57.792Z,859.49
2019-01-28T08:08:57.809Z,859.52
2019-01-28T08:09:57.741Z,859.48
2019-01-28T08:10:57.763Z,859.49
2019-01-28T08:11:57.767Z,859.50
2019-01-28T08:12:57.497Z,859.47
2019-01-28T08:13:57.707Z,859.52
2019-01-28T08:14:57.716Z,859.50
2019-01-28T08:15:57.690Z,859.49
2019-01-28T08:16:57.721Z,859.49
2019-01-28T08:17:57.462Z,859.47
2019-01-28T08:18:57.448Z,859.49
2019-01-28T08:19:57.433Z,859.51
2019-01-28T08:20:57.688Z,859.54
2019-01-28T08:21:57.446Z,859.51
2019-01-28T08:22:57.406Z,859.48
2019-01-28T08:23:57.395Z,859.45
2019-01-28T08:24:57.434Z,859.49
2019-01-28T08:25:57.415Z,859.51
2019-01-28T08:26:57.388Z,859.49
2019-01-28T08:27:57.673Z,859.49
2019-01-28T08:28:57.393Z,859.51
2019-01-28T08:29:57.389Z,859.53
2019-01-28T08:30:57.346Z,859.56
2019-01-28T08:31:57.573Z,859.55
2019-01-28T08:32:57.596Z,859.57
2019-01-28T08:33:57.587Z,859.56
2019-01-28T08:34:57.619Z,859.54
2019-01-28T08:35:57.320Z,859.48
2019-01-28T08:36:57.572Z,859.50
2019-01-28T08:37:57.562Z,859.47
2019-01-28T08:38:57.287Z,859.47
2019-01-28T08:39:57.327Z,859.50
2019-01-28T08:40:57.309Z,859.48
2019-01-28T08:41:57.302Z,859.51
2019-01-28T08:42:57.541Z,859.46
2019-01-28T08:43:57.527Z,859.53
2019-01-28T08:45:57.264Z,859.55
2019-01-28T08:46:57.513Z,859.53
2019-01-28T08:47:57.607Z,859.51
2019-01-28T08:48:57.592Z,859.52
2019-01-28T08:49:57.266Z,859.55
2019-01-28T08:50:57.622Z,859.58
2019-01-28T08:51:57.200Z,859.54
2019-01-28T08:52:57.543Z,859.56
2019-01-28T08:53:57.193Z,859.53
2019-01-28T08:54:57.538Z,859.52
2019-01-28T08:55:57.530Z,859.50
2019-01-28T08:56:57.168Z,859.50
2019-01-28T08:57:57.193Z,859.47
2019-01-28T08:58:57.408Z,859.48
2019-01-28T08:59:57.442Z,859.48
2019-01-28T09:00:57.158Z,859.46
2019-01-28T09:01:57.424Z,859.51
2019-01-28T09:02:57.428Z,859.49
2019-01-28T09:03:57.154Z,859.48
2019-01-28T09:04:57.368Z,859.46
2019-01-28T09:05:57.103Z,859.51
2019-01-28T09:06:57.090Z,859.49
2019-01-28T09:07:57.354Z,859.49
2019-01-28T09:08:57.328Z,859.45
2019-01-28T09:09:57.359Z,859.43
2019-01-28T09:10:57.330Z,859.39
2019-01-28T09:11:57.090Z,859.41
2019-01-28T09:12:57.042Z,859.41
2019-01-28T09:13:57.301Z,859.40
2019-01-28T09:14:57.271Z,859.43
2019-01-28T09:15:57.299Z,859.46
2019-01-28T09:16:57.289Z,859.46
2019-01-28T09:17:57.392Z,859.49
2019-01-28T09:18:57.033Z,859.51
2019-01-28T09:19:58.960Z,859.50
2019-01-28T09:20:57.380Z,859.51
2019-01-28T09:21:57.393Z,859.51
2019-01-28T09:22:57.009Z,859.49
2019-01-28T09:23:56.973Z,859.48
2019-01-28T09:24:56.988Z,859.55
2019-01-28T09:25:56.979Z,859.53
2019-01-28T09:26:57.198Z,859.50
2019-01-28T09:27:57.194Z,859.58
2019-01-28T09:28:56.946Z,859.56
2019-01-28T09:29:56.926Z,859.62
2019-01-28T09:30:56.955Z,859.60
2019-01-28T09:31:56.920Z,859.59
2019-01-28T09:32:57.143Z,859.60
2019-01-28T09:33:56.929Z,859.62
2019-01-28T09:34:57.195Z,859.62
2019-01-28T09:35:57.179Z,859.61
2019-01-28T09:36:57.245Z,859.64
2019-01-28T09:37:57.252Z,859.61
2019-01-28T09:38:57.248Z,859.61
2019-01-28T09:39:57.272Z,859.62
2019-01-28T09:40:57.200Z,859.60
2019-01-28T09:41:56.870Z,859.59
2019-01-28T09:42:57.183Z,859.60
2019-01-28T09:43:56.868Z,859.63
2019-01-28T09:44:57.238Z,859.67
2019-01-28T09:45:57.071Z,859.67
2019-01-28T09:46:56.811Z,859.64
2019-01-28T09:47:56.833Z,859.67
2019-01-28T09:48:56.808Z,859.71
2019-01-28T09:49:57.044Z,859.75
2019-01-28T09:50:56.774Z,859.75
2019-01-28T09:51:56.776Z,859.71
2019-01-28T09:52:56.991Z,859.69
2019-01-28T09:53:57.024Z,859.67
2019-01-28T09:54:57.012Z,859.70
2019-01-28T09:55:56.790Z,859.67
2019-01-28T09:56:57.002Z,859.70
2019-01-28T09:57:56.999Z,859.69
2019-01-28T09:58:56.750Z,859.65
2019-01-28T09:59:56.974Z,859.71
2019-01-28T10:00:56.738Z,859.72
2019-01-28T10:01:56.949Z,859.68
2019-01-28T10:02:56.997Z,859.70
2019-01-28T10:03:56.733Z,859.71
2019-01-28T10:04:56.905Z,859.67
2019-01-28T10:05:56.953Z,859.71
2019-01-28T10:06:56.687Z,859.72
2019-01-28T10:07:56.654Z,859.70
2019-01-28T10:08:56.640Z,859.70
2019-01-28T10:09:56.674Z,859.69
2019-01-28T10:11:56.658Z,859.71
2019-01-28T10:12:56.622Z,859.72
2019-01-28T10:13:56.896Z,859.72
2019-01-28T10:14:56.885Z,859.72
2019-01-28T10:15:56.843Z,859.69
2019-01-28T10:16:56.585Z,859.66
2019-01-28T10:17:56.618Z,859.67
2019-01-28T10:18:56.840Z,859.66
2019-01-28T10:19:56.813Z,859.70
2019-01-28T10:20:56.566Z,859.74
2019-01-28T10:21:56.556Z,859.72
2019-01-28T10:22:56.544Z,859.72
2019-01-28T10:23:56.786Z,859.76
2019-01-28T10:24:56.572Z,859.68
2019-01-28T10:25:57.823Z,859.76
2019-01-28T10:26:56.752Z,859.71
2019-01-28T10:27:56.754Z,859.74
2019-01-28T10:28:56.787Z,859.75
2019-01-28T10:29:56.768Z,859.82
2019-01-28T10:30:56.768Z,859.80
2019-01-28T10:31:56.747Z,859.81
2019-01-28T10:32:56.527Z,859.81
2019-01-28T10:33:56.521Z,859.77
2019-01-28T10:34:56.726Z,859.80
2019-01-28T10:35:56.709Z,859.79
2019-01-28T10:36:56.488Z,859.76
2019-01-28T10:37:56.445Z,859.78
2019-01-28T10:38:56.476Z,859.78
2019-01-28T10:39:56.428Z,859.78
2019-01-28T10:40:56.419Z,859.80
2019-01-28T10:41:56.687Z,859.82
2019-01-28T10:42:56.702Z,859.86
2019-01-28T10:43:56.406Z,859.88
2019-01-28T10:44:56.424Z,859.89
2019-01-28T10:45:56.644Z,859.89
2019-01-28T10:46:56.659Z,859.89
2019-01-28T10:48:00.717Z,859.90
2019-01-28T10:48:56.403Z,859.90
2019-01-28T10:49:56.361Z,859.89
2019-01-28T10:50:56.354Z,859.87
2019-01-28T10:51:58.127Z,859.87
2019-01-28T10:52:56.418Z,859.84
2019-01-28T10:53:56.372Z,859.85
2019-01-28T10:54:56.590Z,859.88
2019-01-28T10:55:56.353Z,859.88
2019-01-28T10:56:56.550Z,859.88
2019-01-28T10:57:56.550Z,859.87
2019-01-28T10:58:56.593Z,859.87
2019-01-28T10:59:56.591Z,859.88
2019-01-28T11:00:56.585Z,859.87
2019-01-28T11:01:56.278Z,859.82
2019-01-28T11:02:56.513Z,859.83
2019-01-28T11:03:56.255Z,859.84
2019-01-28T11:04:56.515Z,859.84
2019-01-28T11:05:56.488Z,859.81
2019-01-28T11:06:56.535Z,859.79
2019-01-28T11:07:56.505Z,859.79
2019-01-28T11:08:56.502Z,859.81
2019-01-28T11:09:56.499Z,859.84
2019-01-28T11:10:56.317Z,859.82
2019-01-28T11:11:56.321Z,859.83
2019-01-28T11:12:56.302Z,859.80
2019-01-28T11:13:56.269Z,859.81
2019-01-28T11:14:56.262Z,859.81
2019-01-28T11:15:56.558Z,859.82
2019-01-28T11:16:56.464Z,859.82
2019-01-28T11:17:56.537Z,859.85
2019-01-28T11:19:56.423Z,859.84
2019-01-28T11:20:56.286Z,859.87
2019-01-28T11:21:56.167Z,859.90
2019-01-28T11:22:56.421Z,859.92
2019-01-28T11:23:56.413Z,859.90
2019-01-28T11:24:56.414Z,859.95
2019-01-28T11:25:56.117Z,859.94
2019-01-28T11:26:56.151Z,859.92
2019-01-28T11:27:56.381Z,859.95
2019-01-28T11:28:56.139Z,859.94
2019-01-28T11:29:56.355Z,859.88
2019-01-28T11:30:56.122Z,859.90
2019-01-28T11:31:56.084Z,859.87
2019-01-28T11:32:56.362Z,859.89
2019-01-28T11:33:56.162Z,859.89
2019-01-28T11:34:56.190Z,859.90
2019-01-28T11:36:04.454Z,859.99
2019-01-28T11:36:56.028Z,859.98
2019-01-28T11:37:56.275Z,860.01
2019-01-28T11:38:56.424Z,860.03
2019-01-28T11:39:56.143Z,860.00
2019-01-28T11:40:56.102Z,860.06
2019-01-28T11:41:56.151Z,860.10
2019-01-28T11:42:56.282Z,860.14
2019-01-28T11:43:56.064Z,860.20
2019-01-28T11:45:56.260Z,860.32
2019-01-28T11:46:56.341Z,860.33
2019-01-28T11:47:55.994Z,860.32
2019-01-28T11:48:56.039Z,860.35
2019-01-28T11:49:55.972Z,860.33
2019-01-28T11:50:56.413Z,860.29
2019-01-28T11:51:55.961Z,860.31
2019-01-28T11:52:56.203Z,860.26
2019-01-28T11:53:56.180Z,860.26
2019-01-28T11:54:56.293Z,860.27
2019-01-28T11:55:55.935Z,860.25
2019-01-28T11:56:55.923Z,860.26
2019-01-28T11:57:56.311Z,860.23
2019-01-28T11:58:55.923Z,860.22
2019-01-28T11:59:55.872Z,860.23
2019-01-28T12:00:56.268Z,860.18
2019-01-28T12:01:56.246Z,860.20
2019-01-28T12:02:55.848Z,860.20
2019-01-28T12:03:56.104Z,860.23
2019-01-28T12:04:56.090Z,860.24
2019-01-28T12:05:55.833Z,860.25
2019-01-28T12:06:56.097Z,860.29
2019-01-28T12:07:56.073Z,860.23
2019-01-28T12:08:56.088Z,860.20
2019-01-28T12:09:55.840Z,860.17
2019-01-28T12:10:56.111Z,860.15
2019-01-28T12:11:56.110Z,860.16
2019-01-28T12:12:55.799Z,860.13
2019-01-28T12:13:55.812Z,860.15
2019-01-28T12:14:56.010Z,860.13
2019-01-28T12:15:55.771Z,860.11
2019-01-28T12:16:56.032Z,860.10
2019-01-28T12:17:55.760Z,860.06
2019-01-28T12:18:55.743Z,860.11
2019-01-28T12:19:55.740Z,860.13
2019-01-28T12:20:55.752Z,860.18
2019-01-28T12:21:56.017Z,860.15
2019-01-28T12:22:55.714Z,860.20
2019-01-28T12:23:55.748Z,860.18
2019-01-28T12:24:55.964Z,860.13
2019-01-28T12:25:55.726Z,860.18
2019-01-28T12:26:55.923Z,860.20
2019-01-28T12:27:55.678Z,860.21
2019-01-28T12:28:55.905Z,860.20
2019-01-28T12:29:56.044Z,860.19
2019-01-28T12:30:55.653Z,860.26
2019-01-28T12:31:56.122Z,860.25
2019-01-28T12:32:55.674Z,860.27
2019-01-28T12:33:56.041Z,860.33
2019-01-28T12:34:56.003Z,860.33
2019-01-28T12:35:55.654Z,860.31
2019-01-28T12:36:55.617Z,860.30
2019-01-28T12:37:55.852Z,860.30